Time;durP1;ratioP1;P1;durP2;ratioP2;P2;SDS_P1;SDS_P2;PMS_P1;PMS_P2;Temp;Humidity;BMP_temperature;BMP_pressure;BME280_temperature;BME280_humidity;BME280_pressure;Samples;Min_cycle;Max_cycle;Signal;HPM_P1;HPM_P2
2021/03/13 00:04:01;;;;;;;;;;;5.90;99.90;;;;;;13153450;22;20373;-91
2021/03/13 00:09:03;;;;;;;;;;;6.10;99.90;;;;;;13128206;22;19989;-92
2021/03/13 00:14:04;;;;;;;;;;;6.10;99.90;;;;;;13182208;22;19964;-90
2021/03/13 00:19:05;;;;;;;;;;;6.10;99.90;;;;;;13127352;22;20006;-91
2021/03/13 00:24:07;;;;;;;;;;;6.90;99.90;;;;;;13126809;22;19924;-91
2021/03/13 00:29:08;;;;;;;;;;;6.10;99.90;;;;;;13127894;22;19990;-91
2021/03/13 00:34:09;;;;;;;;;;;6.10;99.90;;;;;;13128211;22;20006;-92
2021/03/13 00:39:11;;;;;;;;;;;6.40;99.90;;;;;;13154052;22;19945;-91
2021/03/13 00:44:12;;;;;;;;;;;6.90;99.90;;;;;;13127165;22;20298;-92
2021/03/13 00:49:13;;;;;;;;;;;7.20;99.90;;;;;;13152685;22;19933;-91
2021/03/13 00:54:14;;;;;;;;;;;6.30;99.90;;;;;;13153560;22;20005;-91
2021/03/13 00:59:16;;;;;;;;;;;6.40;99.90;;;;;;13132025;22;20013;-91
2021/03/13 01:04:17;;;;;;;;;;;6.40;99.90;;;;;;13132219;22;19919;-91
2021/03/13 01:09:18;;;;;;;;;;;7.70;99.90;;;;;;13131352;22;19953;-92
2021/03/13 01:14:19;;;;;;;;;;;6.70;99.90;;;;;;13156539;22;20433;-91
2021/03/13 01:19:21;;;;;;;;;;;7.90;99.90;;;;;;13125234;22;20331;-89
2021/03/13 01:24:22;;;;;;;;;;;8.10;99.90;;;;;;13158310;22;19922;-89
2021/03/13 01:29:23;;;;;;;;;;;6.20;99.90;;;;;;13158869;22;19918;-88
2021/03/13 01:34:25;;;;;;;;;;;7.00;99.90;;;;;;13131669;22;19946;-89
2021/03/13 01:39:26;;;;;;;;;;;8.20;99.90;;;;;;13157877;22;19928;-89
2021/03/13 01:44:27;;;;;;;;;;;7.60;99.90;;;;;;13130890;22;19925;-89
2021/03/13 01:49:30;;;;;;;;;;;6.10;99.90;;;;;;13131259;22;19945;-88
2021/03/13 01:54:31;;;;;;;;;;;6.30;99.90;;;;;;13156209;22;20231;-88
2021/03/13 01:59:32;;;;;;;;;;;5.90;99.90;;;;;;13130349;22;20079;-88
2021/03/13 02:04:35;;;;;;;;;;;5.90;99.90;;;;;;13129824;22;20382;-88
2021/03/13 02:09:56;;;;;;;;;;;6.70;99.90;;;;;;13183066;22;19923;-88
2021/03/13 02:15:24;;;;;;;;;;;5.90;99.90;;;;;;13154678;22;20699;-88
2021/03/13 02:20:39;;;;;;;;;;;5.90;99.90;;;;;;13148665;22;19997;-88
2021/03/13 02:26:11;;;;;;;;;;;5.80;99.90;;;;;;13183339;22;20317;-88
2021/03/13 02:31:13;;;;;;;;;;;5.80;99.90;;;;;;13155361;22;20407;-88
2021/03/13 02:36:16;;;;;;;;;;;5.80;99.90;;;;;;13155403;22;19918;-88
2021/03/13 02:41:18;;;;;;;;;;;6.00;99.90;;;;;;13129082;22;20322;-89
2021/03/13 02:46:21;;;;;;;;;;;7.20;99.90;;;;;;13129193;22;19989;-88
2021/03/13 02:51:24;;;;;;;;;;;5.90;99.90;;;;;;13155292;22;20362;-88
2021/03/13 02:56:25;;;;;;;;;;;7.60;99.90;;;;;;13182312;22;20311;-88
2021/03/13 03:01:28;;;;;;;;;;;8.10;99.90;;;;;;13154511;22;20358;-88
2021/03/13 03:06:34;;;;;;;;;;;6.30;99.90;;;;;;13154738;22;19918;-88
2021/03/13 03:11:36;;;;;;;;;;;6.00;99.90;;;;;;13154198;22;19941;-88
2021/03/13 03:16:38;;;;;;;;;;;6.10;99.90;;;;;;13127944;22;19925;-88
2021/03/13 03:21:40;;;;;;;;;;;6.30;99.90;;;;;;13182012;22;19918;-88
2021/03/13 03:26:41;;;;;;;;;;;6.10;99.90;;;;;;13155416;22;19993;-87
2021/03/13 03:31:42;;;;;;;;;;;7.90;99.90;;;;;;13128791;22;19925;-88
2021/03/13 03:36:43;;;;;;;;;;;8.40;99.90;;;;;;13127653;22;19964;-88
2021/03/13 03:41:46;;;;;;;;;;;6.60;99.90;;;;;;13153744;22;20354;-88
2021/03/13 03:46:49;;;;;;;;;;;6.10;99.90;;;;;;13153630;22;19922;-88
2021/03/13 03:51:51;;;;;;;;;;;7.90;99.90;;;;;;13128947;22;19926;-88
2021/03/13 03:56:52;;;;;;;;;;;6.10;99.90;;;;;;13154310;22;19918;-88
2021/03/13 04:01:54;;;;;;;;;;;6.20;99.90;;;;;;13153531;22;19976;-89
2021/03/13 04:06:56;;;;;;;;;;;8.40;99.90;;;;;;13154275;22;19922;-88
2021/03/13 04:11:58;;;;;;;;;;;7.30;99.90;;;;;;13154181;22;19946;-88
2021/03/13 04:17:00;;;;;;;;;;;6.30;99.90;;;;;;13127849;22;20240;-88
2021/03/13 04:22:02;;;;;;;;;;;7.50;99.90;;;;;;13128213;22;19971;-88
2021/03/13 04:27:03;;;;;;;;;;;6.20;99.90;;;;;;13181210;22;19993;-88
2021/03/13 04:32:05;;;;;;;;;;;6.30;99.90;;;;;;13130329;22;20400;-88
2021/03/13 04:37:07;;;;;;;;;;;6.40;99.90;;;;;;13133188;22;19918;-88
2021/03/13 04:42:08;;;;;;;;;;;8.90;99.90;;;;;;13131909;22;20291;-88
2021/03/13 04:47:10;;;;;;;;;;;6.40;99.90;;;;;;13132017;22;20386;-88
2021/03/13 04:52:12;;;;;;;;;;;6.90;99.90;;;;;;13157375;22;19938;-87
2021/03/13 04:57:13;;;;;;;;;;;6.60;99.90;;;;;;13132671;22;19994;-88
2021/03/13 05:02:15;;;;;;;;;;;7.80;99.90;;;;;;13132792;22;19938;-88
2021/03/13 05:07:16;;;;;;;;;;;6.50;99.90;;;;;;13132764;22;19925;-88
2021/03/13 05:12:18;;;;;;;;;;;7.10;99.90;;;;;;13131286;22;19985;-88
2021/03/13 05:17:19;;;;;;;;;;;7.30;99.90;;;;;;13133336;22;19953;-88
2021/03/13 05:22:20;;;;;;;;;;;7.90;99.90;;;;;;13157348;22;19918;-88
2021/03/13 05:27:26;;;;;;;;;;;6.70;99.90;;;;;;13133909;22;19925;-88
2021/03/13 05:32:27;;;;;;;;;;;6.70;99.90;;;;;;13157450;22;19994;-88
2021/03/13 05:37:30;;;;;;;;;;;8.60;99.90;;;;;;13157230;22;19985;-88
2021/03/13 05:42:31;;;;;;;;;;;6.80;99.90;;;;;;13157383;22;19954;-88
2021/03/13 05:47:34;;;;;;;;;;;7.10;99.90;;;;;;13155938;22;20403;-87
2021/03/13 05:52:37;;;;;;;;;;;7.00;99.90;;;;;;13156482;22;19922;-88
2021/03/13 05:57:38;;;;;;;;;;;6.80;99.90;;;;;;13156633;22;19922;-88
2021/03/13 06:02:39;;;;;;;;;;;7.10;99.90;;;;;;13131302;22;19990;-88
2021/03/13 06:07:42;;;;;;;;;;;6.80;99.90;;;;;;13131453;22;19958;-88
2021/03/13 06:12:44;;;;;;;;;;;6.80;99.90;;;;;;13156789;22;20001;-88
2021/03/13 06:18:05;;;;;;;;;;;6.80;99.90;;;;;;13130970;22;19949;-88
2021/03/13 06:23:07;;;;;;;;;;;8.80;99.90;;;;;;13155462;22;20248;-88
2021/03/13 06:28:12;;;;;;;;;;;7.10;99.90;;;;;;13156196;22;19949;-89
2021/03/13 06:33:20;;;;;;;;;;;6.90;99.90;;;;;;13130449;22;20108;-89
2021/03/13 06:38:25;;;;;;;;;;;6.80;99.90;;;;;;13156904;22;19924;-89
2021/03/13 06:43:30;;;;;;;;;;;6.40;99.90;;;;;;13156285;22;19922;-87
2021/03/13 06:48:32;;;;;;;;;;;6.50;99.90;;;;;;13183297;22;19989;-88
2021/03/13 06:53:33;;;;;;;;;;;6.30;99.90;;;;;;13154850;22;20337;-89
2021/03/13 06:58:34;;;;;;;;;;;8.70;99.90;;;;;;13130221;22;19974;-88
2021/03/13 07:04:02;;;;;;;;;;;7.20;99.90;;;;;;13128818;22;19924;-89
2021/03/13 07:09:03;;;;;;;;;;;6.40;99.90;;;;;;13148209;22;19922;-88
2021/03/13 07:14:04;;;;;;;;;;;6.40;99.90;;;;;;13128952;22;20354;-89
2021/03/13 07:19:07;;;;;;;;;;;6.50;99.90;;;;;;13128166;22;20304;-85
2021/03/13 07:24:09;;;;;;;;;;;6.50;99.90;;;;;;13154351;22;19926;-86
2021/03/13 07:29:12;;;;;;;;;;;6.40;99.90;;;;;;13181394;22;19945;-85
2021/03/13 07:34:18;;;;;;;;;;;6.90;99.90;;;;;;13181590;22;19954;-85
2021/03/13 07:39:25;;;;;;;;;;;6.60;99.90;;;;;;13153002;22;20273;-85
2021/03/13 07:44:27;;;;;;;;;;;6.80;99.90;;;;;;13152795;22;19968;-85
2021/03/13 07:49:30;;;;;;;;;;;7.90;99.90;;;;;;13127441;22;19929;-86
2021/03/13 07:54:35;;;;;;;;;;;10.10;99.90;;;;;;13153317;22;19922;-86
2021/03/13 07:59:39;;;;;;;;;;;8.10;99.90;;;;;;13152339;22;20308;-86
2021/03/13 08:04:55;;;;;;;;;;;8.00;99.90;;;;;;13152211;22;20005;-86
2021/03/13 08:09:56;;;;;;;;;;;7.60;99.90;;;;;;13179028;22;19922;-86
2021/03/13 08:14:59;;;;;;;;;;;8.40;99.90;;;;;;13125834;22;20246;-86
2021/03/13 08:20:07;;;;;;;;;;;8.90;99.90;;;;;;13126431;22;19919;-85
2021/03/13 08:25:25;;;;;;;;;;;8.50;99.90;;;;;;13152436;22;19918;-87
2021/03/13 08:30:26;;;;;;;;;;;8.40;99.90;;;;;;13126436;22;19985;-85
2021/03/13 08:35:44;;;;;;;;;;;9.00;99.90;;;;;;13127328;22;19918;-85
2021/03/13 08:40:48;;;;;;;;;;;8.20;99.90;;;;;;13149581;22;19933;-85
2021/03/13 08:45:49;;;;;;;;;;;7.90;99.90;;;;;;13152527;22;19957;-86
2021/03/13 08:50:51;;;;;;;;;;;8.20;99.90;;;;;;13126736;22;19983;-86
2021/03/13 08:55:52;;;;;;;;;;;8.60;99.90;;;;;;13180900;22;19998;-86
2021/03/13 09:00:54;;;;;;;;;;;7.80;99.90;;;;;;13126217;22;20307;-86
2021/03/13 09:05:55;;;;;;;;;;;8.00;99.90;;;;;;13123829;22;19942;-87
2021/03/13 09:10:56;;;;;;;;;;;8.00;99.90;;;;;;13120709;22;20338;-86
2021/03/13 09:15:58;;;;;;;;;;;7.90;99.90;;;;;;13145983;22;20324;-87
2021/03/13 09:20:59;;;;;;;;;;;7.90;99.90;;;;;;13123328;22;20437;-87
2021/03/13 09:26:04;;;;;;;;;;;8.90;99.90;;;;;;13154040;22;19925;-88
2021/03/13 09:31:10;;;;;;;;;;;8.90;99.90;;;;;;13156373;22;19989;-88
2021/03/13 09:36:12;;;;;;;;;;;8.50;99.90;;;;;;13184676;22;19918;-88
2021/03/13 09:41:14;;;;;;;;;;;8.30;99.90;;;;;;13154838;22;19918;-88
2021/03/13 09:46:17;;;;;;;;;;;8.10;99.90;;;;;;13129641;22;20295;-88
2021/03/13 09:51:19;;;;;;;;;;;10.30;99.90;;;;;;13155412;22;19924;-89
2021/03/13 09:56:30;;;;;;;;;;;8.10;99.90;;;;;;13128882;22;20396;-89
2021/03/13 10:01:31;;;;;;;;;;;8.10;99.90;;;;;;13153459;22;19922;-88
2021/03/13 10:06:34;;;;;;;;;;;8.80;99.90;;;;;;13154615;22;19918;-88
2021/03/13 10:11:39;;;;;;;;;;;9.20;99.90;;;;;;13180345;22;19929;-88
2021/03/13 10:16:41;;;;;;;;;;;8.40;99.90;;;;;;13185707;22;19996;-88
2021/03/13 10:22:02;;;;;;;;;;;8.00;99.90;;;;;;13157669;22;19918;-88
2021/03/13 10:27:05;;;;;;;;;;;8.30;99.90;;;;;;13157251;22;20354;-89
2021/03/13 10:32:06;;;;;;;;;;;9.10;99.90;;;;;;13157681;22;19924;-89
2021/03/13 10:37:08;;;;;;;;;;;9.60;99.90;;;;;;13185207;22;19925;-89
2021/03/13 10:42:21;;;;;;;;;;;8.90;99.90;;;;;;13157339;22;20370;-89
2021/03/13 10:47:28;;;;;;;;;;;9.90;99.90;;;;;;13184300;22;19985;-89
2021/03/13 10:52:30;;;;;;;;;;;9.70;99.90;;;;;;13157474;22;19954;-88
2021/03/13 10:57:31;;;;;;;;;;;10.20;99.90;;;;;;13130723;22;19918;-89
2021/03/13 11:02:33;;;;;;;;;;;11.20;99.90;;;;;;13155514;22;19949;-88
2021/03/13 11:07:34;;;;;;;;;;;10.90;99.90;;;;;;13156503;22;19926;-89
2021/03/13 11:12:35;;;;;;;;;;;10.90;99.90;;;;;;13132569;22;19923;-89
2021/03/13 11:17:37;;;;;;;;;;;11.60;99.90;;;;;;13130953;22;19918;-89
2021/03/13 11:22:38;;;;;;;;;;;11.30;99.90;;;;;;13130722;22;19918;-88
2021/03/13 11:27:39;;;;;;;;;;;10.80;99.90;;;;;;13131258;22;20250;-89
2021/03/13 11:32:41;;;;;;;;;;;10.90;99.90;;;;;;13183225;22;19952;-88
2021/03/13 11:37:42;;;;;;;;;;;10.10;99.90;;;;;;13155323;22;19918;-89
2021/03/13 11:42:44;;;;;;;;;;;9.80;99.90;;;;;;13156630;22;19937;-88
2021/03/13 11:47:45;;;;;;;;;;;6.30;99.90;;;;;;13155743;22;20339;-88
2021/03/13 11:52:47;;;;;;;;;;;8.00;99.90;;;;;;13155467;22;20292;-87
2021/03/13 11:57:49;;;;;;;;;;;6.60;99.90;;;;;;13155621;22;19918;-87
2021/03/13 12:02:50;;;;;;;;;;;6.30;99.90;;;;;;13129450;22;20362;-88
2021/03/13 12:07:51;;;;;;;;;;;7.20;99.90;;;;;;13129400;22;19963;-88
2021/03/13 12:12:53;;;;;;;;;;;9.70;99.90;;;;;;13128283;22;19926;-89
2021/03/13 12:17:54;;;;;;;;;;;6.90;99.90;;;;;;13125743;22;19933;-88
2021/03/13 12:22:56;;;;;;;;;;;8.70;99.90;;;;;;13130042;22;19946;-88
2021/03/13 12:27:57;;;;;;;;;;;6.90;99.90;;;;;;13129679;22;19953;-89
2021/03/13 12:32:59;;;;;;;;;;;7.20;99.90;;;;;;13154803;22;19968;-88
2021/03/13 12:38:00;;;;;;;;;;;10.10;99.90;;;;;;13133678;22;20345;-89
2021/03/13 12:43:22;;;;;;;;;;;8.50;99.90;;;;;;13134596;22;19922;-88
2021/03/13 12:48:23;;;;;;;;;;;9.20;99.90;;;;;;13148321;22;19918;-88
2021/03/13 12:53:25;;;;;;;;;;;9.30;99.90;;;;;;13125134;22;19918;-88
2021/03/13 12:58:26;;;;;;;;;;;9.50;99.90;;;;;;13133018;22;19922;-89
2021/03/13 13:03:27;;;;;;;;;;;9.30;99.90;;;;;;13134033;22;19918;-89
2021/03/13 13:08:29;;;;;;;;;;;8.90;99.90;;;;;;13126226;22;19930;-89
2021/03/13 13:13:30;;;;;;;;;;;9.30;99.90;;;;;;13151422;22;19922;-88
2021/03/13 13:18:32;;;;;;;;;;;9.50;99.90;;;;;;13124531;22;19922;-89
2021/03/13 13:23:33;;;;;;;;;;;9.20;99.90;;;;;;13125185;22;19922;-91
2021/03/13 13:28:35;;;;;;;;;;;9.40;99.90;;;;;;13149964;22;19971;-90
2021/03/13 13:33:37;;;;;;;;;;;9.80;99.90;;;;;;13147437;22;19960;-89
2021/03/13 13:38:38;;;;;;;;;;;9.30;99.90;;;;;;13122654;22;20275;-91
2021/03/13 13:43:40;;;;;;;;;;;9.90;99.90;;;;;;13121536;22;19926;-91
2021/03/13 13:48:41;;;;;;;;;;;8.20;99.90;;;;;;13120807;22;19922;-92
2021/03/13 13:53:43;;;;;;;;;;;7.90;99.90;;;;;;13124467;22;19957;-91
2021/03/13 13:58:44;;;;;;;;;;;7.00;99.90;;;;;;13150634;22;19928;-91
2021/03/13 14:03:45;;;;;;;;;;;6.60;99.90;;;;;;13123350;22;19922;-91
2021/03/13 14:08:47;;;;;;;;;;;6.80;99.90;;;;;;13149601;22;20342;-91
2021/03/13 14:13:48;;;;;;;;;;;9.80;99.90;;;;;;13121702;22;20289;-91
2021/03/13 14:18:49;;;;;;;;;;;7.80;99.90;;;;;;13118003;22;19922;-90
2021/03/13 14:23:51;;;;;;;;;;;7.70;99.90;;;;;;13148444;22;20303;-91
2021/03/13 14:28:56;;;;;;;;;;;8.30;99.90;;;;;;13147370;22;19922;-91
2021/03/13 14:33:57;;;;;;;;;;;8.40;99.90;;;;;;13121771;22;19997;-91
2021/03/13 14:38:58;;;;;;;;;;;8.80;99.90;;;;;;13147361;22;20357;-91
2021/03/13 14:44:00;;;;;;;;;;;8.80;99.90;;;;;;13125190;22;20305;-90
2021/03/13 14:49:02;;;;;;;;;;;8.70;99.90;;;;;;13154148;22;19925;-90
2021/03/13 14:54:03;;;;;;;;;;;9.90;99.90;;;;;;13154894;22;19946;-89
2021/03/13 14:59:05;;;;;;;;;;;8.60;99.90;;;;;;13156188;22;20005;-90
2021/03/13 15:04:06;;;;;;;;;;;6.40;99.90;;;;;;13156365;22;19994;-88
2021/03/13 15:09:08;;;;;;;;;;;5.50;99.90;;;;;;13156634;22;19934;-89
2021/03/13 15:14:09;;;;;;;;;;;5.40;99.90;;;;;;13130751;22;19929;-88
2021/03/13 15:19:11;;;;;;;;;;;5.30;99.90;;;;;;13156539;22;20054;-89
2021/03/13 15:24:12;;;;;;;;;;;5.40;99.90;;;;;;13156509;22;19918;-88
2021/03/13 15:29:15;;;;;;;;;;;6.90;99.90;;;;;;13130130;22;19918;-88
2021/03/13 15:34:16;;;;;;;;;;;5.50;99.90;;;;;;13154855;22;19929;-88
2021/03/13 15:39:18;;;;;;;;;;;5.60;99.90;;;;;;13182556;22;19942;-88
2021/03/13 15:44:19;;;;;;;;;;;8.00;99.90;;;;;;13154725;22;20404;-88
2021/03/13 15:49:20;;;;;;;;;;;5.80;99.90;;;;;;13155637;22;19918;-88
2021/03/13 15:54:22;;;;;;;;;;;5.90;99.90;;;;;;13129405;22;19925;-88
2021/03/13 15:59:23;;;;;;;;;;;6.00;99.90;;;;;;13181930;22;19989;-88
2021/03/13 16:04:25;;;;;;;;;;;6.20;99.90;;;;;;13155459;22;19918;-88
2021/03/13 16:09:27;;;;;;;;;;;6.60;99.90;;;;;;13128909;22;19918;-88
2021/03/13 16:14:32;;;;;;;;;;;9.00;99.90;;;;;;13181044;22;20425;-87
2021/03/13 16:19:33;;;;;;;;;;;8.80;99.90;;;;;;13154259;22;19918;-88
2021/03/13 16:24:34;;;;;;;;;;;9.10;99.90;;;;;;13155175;22;19928;-88
2021/03/13 16:29:36;;;;;;;;;;;7.80;99.90;;;;;;13124204;22;19926;-88
2021/03/13 16:34:38;;;;;;;;;;;8.40;99.90;;;;;;13179635;22;20323;-89
2021/03/13 16:39:39;;;;;;;;;;;8.60;99.90;;;;;;13128348;22;19968;-89
2021/03/13 16:44:52;;;;;;;;;;;8.20;99.90;;;;;;13157581;22;20212;-89
2021/03/13 16:49:54;;;;;;;;;;;6.70;99.90;;;;;;13154471;22;19919;-88
2021/03/13 16:54:56;;;;;;;;;;;7.10;99.90;;;;;;13181263;22;19918;-88
2021/03/13 16:59:58;;;;;;;;;;;5.50;99.90;;;;;;13154430;22;20355;-88
2021/03/13 17:05:03;;;;;;;;;;;7.30;99.90;;;;;;13129901;22;20251;-89
2021/03/13 17:10:05;;;;;;;;;;;5.30;99.90;;;;;;13153637;22;19922;-88
2021/03/13 17:15:19;;;;;;;;;;;5.20;99.90;;;;;;13133728;22;20119;-88
2021/03/13 17:20:20;;;;;;;;;;;5.20;99.90;;;;;;13153910;22;19918;-88
2021/03/13 17:25:23;;;;;;;;;;;5.20;99.90;;;;;;13128301;22;20177;-89
2021/03/13 17:30:25;;;;;;;;;;;5.30;99.90;;;;;;13180900;22;20313;-89
2021/03/13 17:35:27;;;;;;;;;;;5.30;99.90;;;;;;13154519;22;19918;-88
2021/03/13 17:40:28;;;;;;;;;;;7.60;99.90;;;;;;13157062;22;19922;-89
2021/03/13 17:45:40;;;;;;;;;;;7.00;99.90;;;;;;13160101;22;19942;-88
2021/03/13 17:50:42;;;;;;;;;;;6.10;99.90;;;;;;13158661;22;19922;-88
2021/03/13 17:55:43;;;;;;;;;;;5.70;99.90;;;;;;13131535;22;19919;-88
2021/03/13 18:00:45;;;;;;;;;;;6.40;99.90;;;;;;13131262;22;20306;-88
2021/03/13 18:05:46;;;;;;;;;;;7.70;99.90;;;;;;13158372;22;19926;-89
2021/03/13 18:10:47;;;;;;;;;;;6.70;99.90;;;;;;13131296;22;20001;-89
2021/03/13 18:16:01;;;;;;;;;;;7.00;99.90;;;;;;13185667;22;19918;-89
2021/03/13 18:21:03;;;;;;;;;;;6.10;99.90;;;;;;13156907;22;19922;-89
2021/03/13 18:26:05;;;;;;;;;;;5.90;99.90;;;;;;13132590;22;19940;-89
2021/03/13 18:31:06;;;;;;;;;;;7.60;99.90;;;;;;13131938;22;19918;-89
2021/03/13 18:36:08;;;;;;;;;;;5.90;99.90;;;;;;13157268;22;20350;-89
2021/03/13 18:41:09;;;;;;;;;;;5.90;99.90;;;;;;13157565;22;19918;-88
2021/03/13 18:46:27;;;;;;;;;;;6.30;99.90;;;;;;13160555;22;19918;-89
2021/03/13 18:51:28;;;;;;;;;;;5.30;99.90;;;;;;13156869;22;19924;-89
2021/03/13 18:56:29;;;;;;;;;;;6.20;99.90;;;;;;13157220;22;19922;-89
2021/03/13 19:01:31;;;;;;;;;;;7.20;99.90;;;;;;13130917;22;19926;-89
2021/03/13 19:06:52;;;;;;;;;;;6.60;99.90;;;;;;13139413;22;19918;-90
2021/03/13 19:11:54;;;;;;;;;;;6.50;99.90;;;;;;13157239;22;19918;-89
2021/03/13 19:16:55;;;;;;;;;;;6.50;99.90;;;;;;13130750;22;19926;-89
2021/03/13 19:59:37;;;;;;;;;;;5.90;99.90;;;;;;13063168;22;19914;-92
2021/03/13 20:04:38;;;;;;;;;;;5.80;99.90;;;;;;13153857;22;19918;-91
2021/03/13 20:09:39;;;;;;;;;;;5.90;99.90;;;;;;13154693;22;20335;-92
2021/03/13 20:14:41;;;;;;;;;;;5.90;99.90;;;;;;13154618;22;19937;-92
2021/03/13 20:19:43;;;;;;;;;;;5.90;99.90;;;;;;13128489;22;19918;-92
2021/03/13 20:24:46;;;;;;;;;;;8.20;99.90;;;;;;13128477;22;19942;-92
2021/03/13 20:29:47;;;;;;;;;;;7.10;99.90;;;;;;13129492;22;20012;-91
2021/03/13 20:34:48;;;;;;;;;;;7.50;99.90;;;;;;13127968;22;19922;-91
2021/03/13 20:39:50;;;;;;;;;;;6.90;99.90;;;;;;13154940;22;19930;-91
2021/03/13 20:44:52;;;;;;;;;;;7.90;99.90;;;;;;13129272;22;19918;-92
2021/03/13 20:49:53;;;;;;;;;;;4.10;99.90;;;;;;13126995;22;20266;-90
2021/03/13 20:54:55;;;;;;;;;;;6.00;99.90;;;;;;13153340;22;20262;-91
2021/03/13 20:59:56;;;;;;;;;;;8.50;99.90;;;;;;13126575;22;19945;-90
2021/03/13 21:04:58;;;;;;;;;;;7.40;99.90;;;;;;13180617;22;19924;-90
2021/03/13 21:10:00;;;;;;;;;;;5.90;99.90;;;;;;13128130;22;19923;-91
2021/03/13 21:15:01;;;;;;;;;;;6.00;99.90;;;;;;13157096;22;19945;-92
2021/03/13 21:20:06;;;;;;;;;;;6.10;99.90;;;;;;13131698;22;20339;-92
2021/03/13 21:25:07;;;;;;;;;;;6.00;99.90;;;;;;13157175;22;20285;-91
2021/03/13 21:30:09;;;;;;;;;;;6.00;99.90;;;;;;13157928;22;19922;-92
2021/03/13 21:35:11;;;;;;;;;;;6.00;99.90;;;;;;13157147;22;20395;-91
2021/03/13 21:40:12;;;;;;;;;;;6.00;99.90;;;;;;13155883;22;19918;-91
2021/03/13 21:45:13;;;;;;;;;;;5.80;99.90;;;;;;13157633;22;19946;-91
2021/03/13 21:50:15;;;;;;;;;;;5.80;99.90;;;;;;13130911;22;19993;-92
2021/03/13 21:55:18;;;;;;;;;;;5.80;99.90;;;;;;13157047;22;19922;-90
2021/03/13 22:00:19;;;;;;;;;;;5.80;99.90;;;;;;13130177;22;20382;-91
2021/03/13 22:05:21;;;;;;;;;;;5.90;99.90;;;;;;13156190;22;20366;-91
2021/03/13 22:10:22;;;;;;;;;;;5.80;99.90;;;;;;13156717;22;19950;-91
2021/03/13 22:15:23;;;;;;;;;;;7.20;99.90;;;;;;13182748;22;20001;-91
2021/03/13 22:20:24;;;;;;;;;;;7.70;99.90;;;;;;13157170;22;20323;-90
2021/03/13 22:25:26;;;;;;;;;;;5.80;99.90;;;;;;13157564;22;20386;-90
2021/03/13 22:30:27;;;;;;;;;;;7.30;99.90;;;;;;13130483;22;19925;-91
2021/03/13 22:35:28;;;;;;;;;;;7.70;99.90;;;;;;13130261;22;19944;-91
2021/03/13 22:40:29;;;;;;;;;;;5.70;99.90;;;;;;13156413;22;20339;-91
2021/03/13 22:45:34;;;;;;;;;;;7.20;99.90;;;;;;13182720;22;19922;-91
2021/03/13 22:50:35;;;;;;;;;;;7.30;99.90;;;;;;13155189;22;19929;-91
2021/03/13 22:55:36;;;;;;;;;;;5.80;99.90;;;;;;13155548;22;20001;-90
2021/03/13 23:00:39;;;;;;;;;;;5.80;99.90;;;;;;13129731;22;19941;-91
2021/03/13 23:05:41;;;;;;;;;;;5.40;99.90;;;;;;13155572;22;19942;-91
2021/03/13 23:10:43;;;;;;;;;;;5.80;99.90;;;;;;13154522;22;20297;-90
2021/03/13 23:15:44;;;;;;;;;;;5.60;99.90;;;;;;13155651;22;19978;-92
2021/03/13 23:20:46;;;;;;;;;;;7.40;99.90;;;;;;13154711;22;20393;-91
2021/03/13 23:25:48;;;;;;;;;;;5.70;99.90;;;;;;13154494;22;19993;-91
2021/03/13 23:30:50;;;;;;;;;;;5.50;99.90;;;;;;13154669;22;20005;-91
2021/03/13 23:35:54;;;;;;;;;;;5.90;99.90;;;;;;13154259;22;19918;-91
2021/03/13 23:40:56;;;;;;;;;;;5.30;99.90;;;;;;13182577;22;19918;-91
2021/03/13 23:45:57;;;;;;;;;;;5.30;99.90;;;;;;13182012;22;20327;-91
2021/03/13 23:50:59;;;;;;;;;;;5.20;99.90;;;;;;13128661;22;19997;-91
2021/03/13 23:56:01;;;;;;;;;;;5.20;99.90;;;;;;13128361;22;20378;-92
